Terminal Aerodrome Forecast
Issued by NWS Rapid City, SD

Home | Current Version | Previous Version | Text Only | Print | Product List | Glossary Off
Versions: 1 2 3 4 5 6 7 8 9 10 11 12 13 14 15 16

800
FTUS43 KUNR 281725
TAFRAP
TAF
KRAP 281725Z 2818/2918 36008KT P6SM VCSH BKN060
      TEMPO 2819/2823 -TSRA BKN050CB
     FM290100 32006KT P6SM SCT250=

USA.gov is the U.S. government's official web portal to all federal, state and local government web resources and services.